sensor_id;sensor_type;location;lat;lon;timestamp;P1;P2;P0
44674;PMS5003;30388;52.038;-1.478;2023-04-27T17:19:06;4;4;
44674;PMS5003;30388;52.038;-1.478;2023-04-27T17:21:34;16;15;
44674;PMS5003;30388;52.038;-1.478;2023-04-27T17:24:01;14;12;
44674;PMS5003;30388;52.038;-1.478;2023-04-27T17:26:29;16;12;
44674;PMS5003;30388;52.038;-1.478;2023-04-27T17:28:56;16;13;
44674;PMS5003;30388;52.038;-1.478;2023-04-27T17:31:24;20;12;
44674;PMS5003;30388;52.038;-1.478;2023-04-27T17:33:51;18;14;
44674;PMS5003;30388;52.038;-1.478;2023-04-27T17:36:23;23;20;
44674;PMS5003;30388;52.038;-1.478;2023-04-27T17:38:50;16;15;
44674;PMS5003;30388;52.038;-1.478;2023-04-27T17:41:17;20;14;
44674;PMS5003;30388;52.038;-1.478;2023-04-27T17:43:44;17;12;
44674;PMS5003;30388;52.038;-1.478;2023-04-27T17:46:12;21;16;
44674;PMS5003;30388;52.038;-1.478;2023-04-27T17:48:39;18;14;
44674;PMS5003;30388;52.038;-1.478;2023-04-27T17:51:06;21;17;
44674;PMS5003;30388;52.038;-1.478;2023-04-27T17:53:34;13;13;
44674;PMS5003;30388;52.038;-1.478;2023-04-27T17:56:01;12;12;
44674;PMS5003;30388;52.038;-1.478;2023-04-27T17:58:28;19;16;
44674;PMS5003;30388;52.038;-1.478;2023-04-27T18:00:55;24;20;
44674;PMS5003;30388;52.038;-1.478;2023-04-27T18:03:22;19;14;
44674;PMS5003;30388;52.038;-1.478;2023-04-27T18:05:49;22;16;
44674;PMS5003;30388;52.038;-1.478;2023-04-27T18:08:16;21;16;
44674;PMS5003;30388;52.038;-1.478;2023-04-27T18:10:44;25;15;
44674;PMS5003;30388;52.038;-1.478;2023-04-27T18:13:11;18;16;
44674;PMS5003;30388;52.038;-1.478;2023-04-27T18:15:39;19;16;
44674;PMS5003;30388;52.038;-1.478;2023-04-27T18:18:06;18;15;
44674;PMS5003;30388;52.038;-1.478;2023-04-27T18:20:33;23;21;
44674;PMS5003;30388;52.038;-1.478;2023-04-27T18:23:00;15;14;
44674;PMS5003;30388;52.038;-1.478;2023-04-27T18:25:28;25;17;
44674;PMS5003;30388;52.038;-1.478;2023-04-27T18:27:56;21;14;
44674;PMS5003;30388;52.038;-1.478;2023-04-27T18:30:23;21;15;
44674;PMS5003;30388;52.038;-1.478;2023-04-27T18:33:00;26;19;
44674;PMS5003;30388;52.038;-1.478;2023-04-27T18:35:27;22;15;
44674;PMS5003;30388;52.038;-1.478;2023-04-27T18:37:55;23;18;
44674;PMS5003;30388;52.038;-1.478;2023-04-27T18:40:22;21;17;
44674;PMS5003;30388;52.038;-1.478;2023-04-27T18:42:49;16;16;
44674;PMS5003;30388;52.038;-1.478;2023-04-27T18:45:23;24;22;
44674;PMS5003;30388;52.038;-1.478;2023-04-27T18:47:50;29;19;
44674;PMS5003;30388;52.038;-1.478;2023-04-27T18:50:17;24;22;
44674;PMS5003;30388;52.038;-1.478;2023-04-27T18:52:45;25;19;
44674;PMS5003;30388;52.038;-1.478;2023-04-27T18:55:12;18;15;
44674;PMS5003;30388;52.038;-1.478;2023-04-27T18:57:39;23;21;
44674;PMS5003;30388;52.038;-1.478;2023-04-27T19:00:07;25;22;
44674;PMS5003;30388;52.038;-1.478;2023-04-27T19:02:35;23;19;
44674;PMS5003;30388;52.038;-1.478;2023-04-27T19:05:03;19;19;
44674;PMS5003;30388;52.038;-1.478;2023-04-27T19:07:30;28;22;
44674;PMS5003;30388;52.038;-1.478;2023-04-27T19:09:59;31;25;
44674;PMS5003;30388;52.038;-1.478;2023-04-27T19:12:26;34;26;
44674;PMS5003;30388;52.038;-1.478;2023-04-27T19:14:53;25;24;
44674;PMS5003;30388;52.038;-1.478;2023-04-27T19:17:20;27;23;
44674;PMS5003;30388;52.038;-1.478;2023-04-27T19:19:49;26;18;
44674;PMS5003;30388;52.038;-1.478;2023-04-27T19:22:18;27;25;
44674;PMS5003;30388;52.038;-1.478;2023-04-27T19:24:45;26;21;
44674;PMS5003;30388;52.038;-1.478;2023-04-27T19:27:13;26;19;
44674;PMS5003;30388;52.038;-1.478;2023-04-27T19:29:48;26;24;
44674;PMS5003;30388;52.038;-1.478;2023-04-27T19:32:18;28;22;
44674;PMS5003;30388;52.038;-1.478;2023-04-27T19:34:48;33;25;
44674;PMS5003;30388;52.038;-1.478;2023-04-27T19:37:15;33;27;
44674;PMS5003;30388;52.038;-1.478;2023-04-27T19:39:42;34;23;
44674;PMS5003;30388;52.038;-1.478;2023-04-27T19:42:09;30;25;
44674;PMS5003;30388;52.038;-1.478;2023-04-27T19:44:36;31;27;
44674;PMS5003;30388;52.038;-1.478;2023-04-27T19:47:04;35;23;
44674;PMS5003;30388;52.038;-1.478;2023-04-27T19:49:31;33;25;
44674;PMS5003;30388;52.038;-1.478;2023-04-27T19:52:00;31;24;
44674;PMS5003;30388;52.038;-1.478;2023-04-27T19:54:27;31;21;
44674;PMS5003;30388;52.038;-1.478;2023-04-27T19:56:54;24;22;
44674;PMS5003;30388;52.038;-1.478;2023-04-27T19:59:22;28;23;
44674;PMS5003;30388;52.038;-1.478;2023-04-27T20:01:49;24;21;
44674;PMS5003;30388;52.038;-1.478;2023-04-27T20:04:16;31;26;
44674;PMS5003;30388;52.038;-1.478;2023-04-27T20:06:43;28;23;
44674;PMS5003;30388;52.038;-1.478;2023-04-27T20:09:11;19;18;
44674;PMS5003;30388;52.038;-1.478;2023-04-27T20:11:39;27;23;
44674;PMS5003;30388;52.038;-1.478;2023-04-27T20:14:06;22;16;
44674;PMS5003;30388;52.038;-1.478;2023-04-27T20:16:33;25;19;
44674;PMS5003;30388;52.038;-1.478;2023-04-27T20:19:00;32;23;
44674;PMS5003;30388;52.038;-1.478;2023-04-27T20:21:27;30;22;
44674;PMS5003;30388;52.038;-1.478;2023-04-27T20:23:55;23;17;
44674;PMS5003;30388;52.038;-1.478;2023-04-27T20:26:22;32;23;
44674;PMS5003;30388;52.038;-1.478;2023-04-27T20:28:50;29;24;
44674;PMS5003;30388;52.038;-1.478;2023-04-27T20:31:17;24;22;
44674;PMS5003;30388;52.038;-1.478;2023-04-27T20:33:44;27;21;
44674;PMS5003;30388;52.038;-1.478;2023-04-27T20:36:11;34;21;
44674;PMS5003;30388;52.038;-1.478;2023-04-27T20:38:38;24;21;
44674;PMS5003;30388;52.038;-1.478;2023-04-27T20:41:06;25;23;
44674;PMS5003;30388;52.038;-1.478;2023-04-27T20:43:33;26;21;
44674;PMS5003;30388;52.038;-1.478;2023-04-27T20:46:00;26;21;
44674;PMS5003;30388;52.038;-1.478;2023-04-27T20:48:27;18;17;
44674;PMS5003;30388;52.038;-1.478;2023-04-27T20:50:55;26;18;
44674;PMS5003;30388;52.038;-1.478;2023-04-27T20:53:22;28;23;
44674;PMS5003;30388;52.038;-1.478;2023-04-27T20:55:50;32;22;
44674;PMS5003;30388;52.038;-1.478;2023-04-27T20:58:17;26;21;
44674;PMS5003;30388;52.038;-1.478;2023-04-27T21:00:45;25;19;
44674;PMS5003;30388;52.038;-1.478;2023-04-27T21:03:12;31;22;
44674;PMS5003;30388;52.038;-1.478;2023-04-27T21:05:40;31;22;
44674;PMS5003;30388;52.038;-1.478;2023-04-27T21:08:07;29;24;
44674;PMS5003;30388;52.038;-1.478;2023-04-27T21:10:34;28;23;
44674;PMS5003;30388;52.038;-1.478;2023-04-27T21:13:01;34;24;
44674;PMS5003;30388;52.038;-1.478;2023-04-27T21:15:28;32;22;
44674;PMS5003;30388;52.038;-1.478;2023-04-27T21:17:55;33;25;
44674;PMS5003;30388;52.038;-1.478;2023-04-27T21:20:23;25;19;
44674;PMS5003;30388;52.038;-1.478;2023-04-27T21:22:50;28;23;
44674;PMS5003;30388;52.038;-1.478;2023-04-27T21:25:18;30;18;
44674;PMS5003;30388;52.038;-1.478;2023-04-27T21:27:45;27;22;
44674;PMS5003;30388;52.038;-1.478;2023-04-27T21:30:12;26;17;
44674;PMS5003;30388;52.038;-1.478;2023-04-27T21:32:40;26;19;
44674;PMS5003;30388;52.038;-1.478;2023-04-27T21:35:08;20;15;
44674;PMS5003;30388;52.038;-1.478;2023-04-27T21:37:36;25;15;
44674;PMS5003;30388;52.038;-1.478;2023-04-27T21:40:04;20;18;
44674;PMS5003;30388;52.038;-1.478;2023-04-27T21:42:31;21;15;
44674;PMS5003;30388;52.038;-1.478;2023-04-27T21:44:58;27;22;
44674;PMS5003;30388;52.038;-1.478;2023-04-27T21:47:25;20;15;
44674;PMS5003;30388;52.038;-1.478;2023-04-27T21:49:52;21;16;
44674;PMS5003;30388;52.038;-1.478;2023-04-27T21:52:20;24;15;
44674;PMS5003;30388;52.038;-1.478;2023-04-27T21:54:47;17;10;
44674;PMS5003;30388;52.038;-1.478;2023-04-27T21:57:14;24;18;
44674;PMS5003;30388;52.038;-1.478;2023-04-27T21:59:42;28;20;
44674;PMS5003;30388;52.038;-1.478;2023-04-27T22:02:09;18;13;
44674;PMS5003;30388;52.038;-1.478;2023-04-27T22:04:37;34;23;
44674;PMS5003;30388;52.038;-1.478;2023-04-27T22:07:04;25;19;
44674;PMS5003;30388;52.038;-1.478;2023-04-27T22:09:32;26;19;
44674;PMS5003;30388;52.038;-1.478;2023-04-27T22:12:00;21;18;
44674;PMS5003;30388;52.038;-1.478;2023-04-27T22:14:27;22;18;
44674;PMS5003;30388;52.038;-1.478;2023-04-27T22:16:54;23;21;
44674;PMS5003;30388;52.038;-1.478;2023-04-27T22:19:21;19;16;
44674;PMS5003;30388;52.038;-1.478;2023-04-27T22:21:49;21;20;
44674;PMS5003;30388;52.038;-1.478;2023-04-27T22:24:16;21;17;
44674;PMS5003;30388;52.038;-1.478;2023-04-27T22:26:43;20;15;
44674;PMS5003;30388;52.038;-1.478;2023-04-27T22:29:11;30;21;
44674;PMS5003;30388;52.038;-1.478;2023-04-27T22:31:38;19;15;
44674;PMS5003;30388;52.038;-1.478;2023-04-27T22:34:05;27;20;
44674;PMS5003;30388;52.038;-1.478;2023-04-27T22:36:33;24;16;
44674;PMS5003;30388;52.038;-1.478;2023-04-27T22:39:00;17;16;
44674;PMS5003;30388;52.038;-1.478;2023-04-27T22:41:27;18;14;
44674;PMS5003;30388;52.038;-1.478;2023-04-27T22:43:54;26;17;
44674;PMS5003;30388;52.038;-1.478;2023-04-27T22:46:21;14;13;
44674;PMS5003;30388;52.038;-1.478;2023-04-27T22:48:48;12;10;
44674;PMS5003;30388;52.038;-1.478;2023-04-27T22:51:15;19;17;
44674;PMS5003;30388;52.038;-1.478;2023-04-27T22:53:43;23;17;
44674;PMS5003;30388;52.038;-1.478;2023-04-27T22:56:10;15;13;
44674;PMS5003;30388;52.038;-1.478;2023-04-27T22:58:36;17;10;
44674;PMS5003;30388;52.038;-1.478;2023-04-27T23:01:04;16;16;
44674;PMS5003;30388;52.038;-1.478;2023-04-27T23:03:31;22;16;
44674;PMS5003;30388;52.038;-1.478;2023-04-27T23:05:58;17;14;
44674;PMS5003;30388;52.038;-1.478;2023-04-27T23:08:25;17;15;
44674;PMS5003;30388;52.038;-1.478;2023-04-27T23:10:53;15;14;
44674;PMS5003;30388;52.038;-1.478;2023-04-27T23:13:20;30;19;
44674;PMS5003;30388;52.038;-1.478;2023-04-27T23:15:48;19;13;
44674;PMS5003;30388;52.038;-1.478;2023-04-27T23:18:15;15;15;
44674;PMS5003;30388;52.038;-1.478;2023-04-27T23:20:43;19;17;
44674;PMS5003;30388;52.038;-1.478;2023-04-27T23:23:10;22;17;
44674;PMS5003;30388;52.038;-1.478;2023-04-27T23:25:37;16;13;
44674;PMS5003;30388;52.038;-1.478;2023-04-27T23:28:04;22;16;
44674;PMS5003;30388;52.038;-1.478;2023-04-27T23:30:32;17;12;
44674;PMS5003;30388;52.038;-1.478;2023-04-27T23:32:59;14;11;
44674;PMS5003;30388;52.038;-1.478;2023-04-27T23:35:26;22;17;
44674;PMS5003;30388;52.038;-1.478;2023-04-27T23:37:53;20;16;
44674;PMS5003;30388;52.038;-1.478;2023-04-27T23:40:20;11;11;
44674;PMS5003;30388;52.038;-1.478;2023-04-27T23:42:48;17;16;
44674;PMS5003;30388;52.038;-1.478;2023-04-27T23:45:15;18;11;
44674;PMS5003;30388;52.038;-1.478;2023-04-27T23:47:42;16;14;
44674;PMS5003;30388;52.038;-1.478;2023-04-27T23:50:09;18;16;
44674;PMS5003;30388;52.038;-1.478;2023-04-27T23:52:36;17;16;
44674;PMS5003;30388;52.038;-1.478;2023-04-27T23:55:03;23;16;
44674;PMS5003;30388;52.038;-1.478;2023-04-27T23:57:31;12;10;
